createdAt,value
2018-07-16T00:00:31.232Z,53.96
2018-07-16T00:03:00.403Z,53.70
2018-07-16T00:05:29.570Z,53.94
2018-07-16T00:07:58.621Z,53.64
2018-07-16T00:10:27.689Z,53.49
2018-07-16T00:12:56.786Z,53.41
2018-07-16T00:15:25.918Z,52.92
2018-07-16T00:17:54.991Z,52.88
2018-07-16T00:20:24.063Z,52.62
2018-07-16T00:22:53.235Z,52.19
2018-07-16T00:25:22.327Z,52.79
2018-07-16T00:27:51.484Z,53.15
2018-07-16T00:30:20.606Z,53.45
2018-07-16T00:32:49.722Z,53.48
2018-07-16T00:35:18.864Z,53.57
2018-07-16T00:37:47.975Z,54.35
2018-07-16T00:40:17.104Z,54.15
2018-07-16T00:42:46.200Z,54.39
2018-07-16T00:45:15.306Z,54.43
2018-07-16T00:47:44.449Z,54.75
2018-07-16T00:50:13.546Z,54.81
2018-07-16T00:52:42.642Z,54.76
2018-07-16T00:55:11.775Z,54.66
2018-07-16T00:57:40.823Z,54.58
2018-07-16T01:00:09.943Z,54.52
2018-07-16T01:02:39.060Z,54.28
2018-07-16T01:05:08.196Z,54.58
2018-07-16T01:07:37.355Z,54.66
2018-07-16T01:10:06.501Z,55.16
2018-07-16T01:12:35.640Z,55.96
2018-07-16T01:15:04.783Z,55.93
2018-07-16T01:17:33.924Z,55.76
2018-07-16T01:20:03.021Z,56.11
2018-07-16T01:22:32.145Z,56.18
2018-07-16T01:25:01.356Z,56.39
2018-07-16T01:27:30.754Z,56.56
2018-07-16T01:29:59.891Z,56.88
2018-07-16T01:32:28.958Z,56.86
2018-07-16T01:34:58.010Z,56.63
2018-07-16T01:37:27.111Z,56.72
2018-07-16T01:39:56.259Z,56.75
2018-07-16T01:42:25.389Z,56.91
2018-07-16T01:44:54.474Z,57.43
2018-07-16T01:47:23.835Z,57.54
2018-07-16T01:49:52.913Z,57.61
2018-07-16T01:52:22.003Z,57.82
2018-07-16T01:54:51.054Z,57.98
2018-07-16T01:57:20.211Z,57.95
2018-07-16T01:59:49.335Z,57.95
2018-07-16T02:02:18.458Z,58.15
2018-07-16T02:04:47.614Z,58.23
2018-07-16T02:07:16.685Z,58.08
2018-07-16T02:09:45.970Z,58.34
2018-07-16T02:12:15.024Z,58.30
2018-07-16T02:14:44.116Z,58.72
2018-07-16T02:17:13.207Z,58.59
2018-07-16T02:19:42.328Z,59.02
2018-07-16T02:22:11.438Z,58.58
2018-07-16T02:24:40.551Z,58.70
2018-07-16T02:27:09.642Z,58.51
2018-07-16T02:29:38.775Z,59.10
2018-07-16T02:32:07.891Z,58.90
2018-07-16T02:34:36.997Z,58.96
2018-07-16T02:37:06.098Z,59.15
2018-07-16T02:39:35.235Z,59.43
2018-07-16T02:42:04.311Z,59.56
2018-07-16T02:44:33.358Z,59.47
2018-07-16T02:47:02.464Z,59.76
2018-07-16T02:49:31.618Z,59.66
2018-07-16T02:52:00.706Z,59.62
2018-07-16T02:54:29.810Z,59.92
2018-07-16T02:56:58.915Z,60.18
2018-07-16T02:59:28.021Z,60.42
2018-07-16T03:01:57.179Z,60.35
2018-07-16T03:04:26.303Z,60.08
2018-07-16T03:06:55.483Z,60.03
2018-07-16T03:09:24.541Z,60.08
2018-07-16T03:11:53.650Z,60.01
2018-07-16T03:14:23.161Z,60.11
2018-07-16T03:16:52.275Z,60.43
2018-07-16T03:19:21.379Z,60.56
2018-07-16T03:21:50.494Z,60.61
2018-07-16T03:24:19.546Z,60.71
2018-07-16T03:26:48.643Z,60.75
2018-07-16T03:29:17.766Z,60.76
2018-07-16T03:31:46.841Z,60.70
2018-07-16T03:34:15.897Z,60.82
2018-07-16T03:36:45.003Z,60.69
2018-07-16T03:39:14.135Z,61.13
2018-07-16T03:41:43.238Z,61.11
2018-07-16T03:44:12.334Z,60.76
2018-07-16T03:46:41.378Z,60.76
2018-07-16T03:49:10.483Z,60.68
2018-07-16T03:51:39.645Z,60.35
2018-07-16T03:54:08.803Z,60.35
2018-07-16T03:56:37.899Z,60.19
2018-07-16T03:59:07.036Z,60.47
2018-07-16T04:01:36.182Z,60.12
2018-07-16T04:04:05.376Z,59.73
2018-07-16T04:06:34.497Z,59.65
2018-07-16T04:09:03.814Z,59.20
2018-07-16T04:11:32.930Z,59.11
2018-07-16T04:14:02.098Z,58.84
2018-07-16T04:16:31.182Z,58.53
2018-07-16T04:19:00.289Z,58.38
2018-07-16T04:21:29.356Z,58.48
2018-07-16T04:23:58.426Z,58.25
2018-07-16T04:26:27.525Z,58.21
2018-07-16T04:28:56.593Z,57.96
2018-07-16T04:31:25.843Z,57.66
2018-07-16T04:33:54.941Z,57.44
2018-07-16T04:36:24.054Z,56.99
2018-07-16T04:38:53.143Z,56.78
2018-07-16T04:41:22.215Z,56.85
2018-07-16T04:43:51.311Z,56.28
2018-07-16T04:46:20.433Z,56.02
2018-07-16T04:48:49.525Z,55.87
2018-07-16T04:51:18.609Z,55.89
2018-07-16T04:53:47.734Z,55.33
2018-07-16T04:56:16.942Z,55.16
2018-07-16T04:58:46.000Z,55.10
2018-07-16T05:01:15.127Z,54.84
2018-07-16T05:03:44.217Z,54.71
2018-07-16T05:06:13.326Z,54.59
2018-07-16T05:08:42.436Z,54.71
2018-07-16T05:11:11.520Z,54.45
2018-07-16T05:13:40.662Z,54.00
2018-07-16T05:16:09.721Z,53.87
2018-07-16T05:18:38.799Z,53.86
2018-07-16T05:21:07.908Z,53.81
2018-07-16T05:23:36.993Z,53.29
2018-07-16T05:26:06.102Z,53.04
2018-07-16T05:28:35.275Z,52.19
2018-07-16T05:31:04.417Z,52.06
2018-07-16T05:33:33.532Z,51.76
2018-07-16T05:36:02.657Z,51.48
2018-07-16T05:38:31.759Z,51.15
2018-07-16T05:41:05.366Z,50.58
2018-07-16T05:43:34.558Z,49.92
2018-07-16T05:46:03.642Z,49.56
2018-07-16T05:48:32.767Z,48.41
2018-07-16T05:51:01.829Z,47.21
2018-07-16T05:53:30.891Z,41.06
2018-07-16T05:55:59.971Z,33.08
2018-07-16T05:58:29.079Z,30.17
2018-07-16T06:00:58.232Z,27.48
2018-07-16T06:03:27.322Z,24.63
2018-07-16T06:05:56.433Z,23.37
2018-07-16T06:08:27.801Z,23.22
2018-07-16T06:10:57.355Z,21.71
2018-07-16T06:13:26.455Z,22.07
2018-07-16T06:15:55.551Z,22.77
2018-07-16T06:18:24.687Z,21.99
2018-07-16T06:20:53.863Z,22.50
2018-07-16T06:23:23.023Z,21.87
2018-07-16T06:25:52.159Z,21.72
2018-07-16T06:28:21.272Z,20.73
2018-07-16T06:30:50.431Z,20.60
2018-07-16T06:33:19.542Z,20.17
2018-07-16T06:35:48.646Z,21.16
2018-07-16T06:38:17.734Z,20.86
2018-07-16T06:40:46.898Z,22.06
2018-07-16T06:43:15.932Z,21.34
2018-07-16T06:45:45.020Z,21.22
2018-07-16T06:48:14.157Z,20.94
2018-07-16T06:50:43.347Z,21.78
2018-07-16T06:53:12.610Z,24.27
2018-07-16T06:55:41.737Z,27.56
2018-07-16T06:58:10.884Z,30.50
2018-07-16T07:00:39.971Z,31.44
2018-07-16T07:03:09.191Z,32.13
2018-07-16T07:05:38.686Z,33.22
2018-07-16T07:08:08.151Z,33.39
2018-07-16T07:10:37.266Z,33.88
2018-07-16T07:13:06.399Z,34.87
2018-07-16T07:15:35.547Z,35.47
2018-07-16T07:18:04.745Z,35.69
2018-07-16T07:20:33.778Z,36.09
2018-07-16T07:23:02.925Z,36.18
2018-07-16T07:25:32.025Z,36.58
2018-07-16T07:28:01.429Z,36.18
2018-07-16T07:30:30.561Z,35.92
2018-07-16T07:32:59.711Z,35.62
2018-07-16T07:35:28.764Z,36.68
2018-07-16T07:37:57.834Z,36.51
2018-07-16T07:40:26.966Z,35.92
2018-07-16T07:42:56.065Z,35.72
2018-07-16T07:45:25.203Z,36.07
2018-07-16T07:47:54.376Z,35.64
2018-07-16T07:50:23.269Z,35.36
2018-07-16T07:52:52.413Z,34.63
2018-07-16T07:55:21.966Z,34.87
2018-07-16T07:57:50.607Z,33.90
2018-07-16T08:00:19.714Z,33.86
2018-07-16T08:02:48.813Z,33.48
2018-07-16T08:05:17.954Z,33.31
2018-07-16T08:07:47.021Z,33.07
2018-07-16T08:10:16.102Z,33.52
2018-07-16T08:12:45.218Z,33.29
2018-07-16T08:15:14.349Z,32.67
2018-07-16T08:17:43.467Z,32.05
2018-07-16T08:20:12.529Z,32.38
2018-07-16T08:22:41.640Z,32.61
2018-07-16T08:25:10.742Z,33.33
2018-07-16T08:27:39.856Z,32.69
2018-07-16T08:30:09.037Z,32.66
2018-07-16T08:32:38.238Z,31.54
2018-07-16T08:35:07.366Z,31.40
2018-07-16T08:37:36.486Z,30.66
2018-07-16T08:40:06.765Z,30.80
2018-07-16T08:42:35.882Z,31.65
2018-07-16T08:45:05.050Z,31.00
2018-07-16T08:47:34.105Z,30.88
2018-07-16T08:50:03.242Z,30.54
2018-07-16T08:52:32.358Z,29.32
2018-07-16T08:55:01.467Z,27.86
2018-07-16T08:57:30.582Z,24.38
2018-07-16T08:59:59.780Z,23.58
2018-07-16T09:02:28.881Z,22.78
2018-07-16T09:04:58.039Z,22.17
2018-07-16T09:07:27.093Z,23.51
2018-07-16T09:09:56.199Z,22.65
2018-07-16T09:12:25.301Z,22.12
2018-07-16T09:14:54.433Z,21.99
2018-07-16T09:17:23.631Z,22.58
2018-07-16T09:19:52.771Z,22.50
2018-07-16T09:22:21.899Z,21.96
2018-07-16T09:24:51.089Z,21.87
2018-07-16T09:27:20.178Z,22.34
2018-07-16T09:29:49.283Z,21.50
2018-07-16T09:32:18.475Z,21.75
2018-07-16T09:34:47.567Z,20.51
2018-07-16T09:37:16.678Z,20.79
2018-07-16T09:39:45.756Z,20.59
2018-07-16T09:42:14.881Z,21.02
2018-07-16T09:44:43.961Z,22.48
2018-07-16T09:47:13.120Z,21.52
2018-07-16T09:49:42.154Z,20.75
2018-07-16T09:52:11.402Z,20.36
2018-07-16T09:54:40.401Z,20.06
2018-07-16T09:57:09.654Z,20.40
2018-07-16T09:59:38.780Z,22.06
2018-07-16T10:02:13.249Z,22.59
2018-07-16T10:04:42.331Z,22.11
2018-07-16T10:07:11.612Z,21.60
2018-07-16T10:09:40.685Z,20.87
2018-07-16T10:12:10.083Z,20.37
2018-07-16T10:14:39.208Z,21.23
2018-07-16T10:17:08.994Z,22.54
2018-07-16T10:19:38.091Z,21.95
2018-07-16T10:22:07.776Z,23.32
2018-07-16T10:24:36.842Z,23.27
2018-07-16T10:27:06.015Z,23.17
2018-07-16T10:29:35.134Z,24.32
2018-07-16T10:32:04.229Z,26.77
2018-07-16T10:34:33.366Z,26.57
2018-07-16T10:37:02.539Z,27.15
2018-07-16T10:39:31.739Z,27.54
2018-07-16T10:42:01.701Z,27.40
2018-07-16T10:44:30.831Z,27.49
2018-07-16T10:46:59.987Z,27.79
2018-07-16T10:49:29.160Z,28.47
2018-07-16T10:51:58.264Z,27.65
2018-07-16T10:54:27.428Z,28.29
2018-07-16T10:56:56.545Z,27.71
2018-07-16T10:59:25.749Z,28.59
2018-07-16T11:01:54.846Z,28.82
2018-07-16T11:04:23.976Z,28.12
2018-07-16T11:06:53.079Z,28.98
2018-07-16T11:09:22.202Z,28.82
2018-07-16T11:11:57.675Z,28.91
2018-07-16T11:14:26.812Z,29.52
2018-07-16T11:16:56.272Z,29.45
2018-07-16T11:19:25.373Z,29.01
2018-07-16T11:21:54.476Z,29.68
2018-07-16T11:24:23.684Z,29.90
2018-07-16T11:26:52.758Z,30.96
2018-07-16T11:29:21.887Z,30.71
2018-07-16T11:31:50.955Z,29.50
2018-07-16T11:34:20.063Z,29.83
2018-07-16T11:36:49.201Z,28.89
2018-07-16T11:39:18.375Z,28.89
2018-07-16T11:41:47.588Z,28.69
2018-07-16T11:44:16.750Z,28.36
2018-07-16T11:46:45.882Z,28.80
2018-07-16T11:49:15.015Z,27.86
2018-07-16T11:51:44.101Z,27.67
2018-07-16T11:54:13.237Z,28.15
2018-07-16T11:56:42.290Z,27.68
2018-07-16T11:59:11.394Z,27.95
2018-07-16T12:01:40.504Z,27.59
2018-07-16T12:04:09.885Z,29.20
2018-07-16T12:06:38.994Z,28.17
2018-07-16T12:09:08.285Z,28.27
2018-07-16T12:11:37.361Z,29.19
2018-07-16T12:14:06.610Z,28.34
2018-07-16T12:16:35.754Z,27.90
2018-07-16T12:19:04.934Z,27.32
2018-07-16T12:21:33.824Z,27.41
2018-07-16T12:24:02.954Z,27.70
2018-07-16T12:26:32.083Z,27.27
2018-07-16T12:29:01.182Z,26.39
2018-07-16T12:31:30.297Z,25.67
2018-07-16T12:33:59.362Z,26.03
2018-07-16T12:36:28.489Z,25.95
2018-07-16T12:38:57.590Z,25.76
2018-07-16T12:41:26.707Z,25.82
2018-07-16T12:43:55.797Z,26.02
2018-07-16T12:46:24.903Z,25.78
2018-07-16T12:48:54.009Z,25.39
2018-07-16T12:51:23.123Z,25.30
2018-07-16T12:53:52.352Z,25.32
2018-07-16T12:56:21.484Z,24.62
2018-07-16T12:58:50.642Z,24.21
2018-07-16T13:01:19.722Z,23.99
2018-07-16T13:03:48.825Z,24.01
2018-07-16T13:06:22.656Z,24.16
2018-07-16T13:08:52.681Z,23.37
2018-07-16T13:11:21.954Z,23.48
2018-07-16T13:13:51.327Z,23.01
2018-07-16T13:16:20.437Z,23.34
2018-07-16T13:18:49.596Z,23.89
2018-07-16T13:21:18.710Z,24.21
2018-07-16T13:23:48.058Z,23.61
2018-07-16T13:26:17.232Z,23.48
2018-07-16T13:28:46.327Z,24.36
2018-07-16T13:31:15.453Z,24.04
2018-07-16T13:33:44.461Z,23.63
2018-07-16T13:36:13.574Z,23.87
2018-07-16T13:38:42.666Z,23.34
2018-07-16T13:41:11.751Z,22.60
2018-07-16T13:43:40.927Z,22.90
2018-07-16T13:46:10.033Z,22.76
2018-07-16T13:48:39.259Z,22.96
2018-07-16T13:51:08.868Z,21.93
2018-07-16T13:53:37.994Z,22.48
2018-07-16T13:56:07.149Z,22.04
2018-07-16T13:58:36.300Z,21.95
2018-07-16T14:01:05.483Z,22.45
2018-07-16T14:03:34.600Z,22.36
2018-07-16T14:06:03.777Z,23.74
2018-07-16T14:08:32.874Z,23.32
2018-07-16T14:11:01.953Z,22.98
2018-07-16T14:13:31.023Z,22.90
2018-07-16T14:16:00.168Z,22.39
2018-07-16T14:18:29.602Z,23.33
2018-07-16T14:20:58.698Z,23.73
2018-07-16T14:23:27.870Z,24.02
2018-07-16T14:25:57.033Z,23.75
2018-07-16T14:28:26.162Z,23.65
2018-07-16T14:30:55.245Z,23.72
2018-07-16T14:33:24.430Z,23.23
2018-07-16T14:35:53.579Z,23.66
2018-07-16T14:38:22.711Z,23.56
2018-07-16T14:40:51.866Z,22.59
2018-07-16T14:43:20.998Z,22.91
2018-07-16T14:45:50.100Z,22.56
2018-07-16T14:48:19.231Z,23.17
2018-07-16T14:50:48.298Z,22.84
2018-07-16T14:53:17.384Z,23.00
2018-07-16T14:55:46.482Z,22.33
2018-07-16T14:58:15.617Z,23.12
2018-07-16T15:00:44.813Z,23.05
2018-07-16T15:03:14.004Z,23.10
2018-07-16T15:05:43.201Z,23.21
2018-07-16T15:08:12.247Z,23.94
2018-07-16T15:10:41.393Z,23.58
2018-07-16T15:13:10.634Z,23.52
2018-07-16T15:15:39.714Z,23.62
2018-07-16T15:18:08.809Z,23.96
2018-07-16T15:20:38.063Z,23.29
2018-07-16T15:23:07.086Z,23.12
2018-07-16T15:25:36.170Z,23.45
2018-07-16T15:28:05.405Z,22.90
2018-07-16T15:30:34.531Z,23.70
2018-07-16T15:33:03.696Z,23.15
2018-07-16T15:35:32.863Z,23.66
2018-07-16T15:38:08.699Z,23.70
2018-07-16T15:40:37.833Z,23.76
2018-07-16T15:43:06.998Z,23.81
2018-07-16T15:45:36.103Z,24.47
2018-07-16T15:48:05.237Z,24.83
2018-07-16T15:50:34.464Z,24.24
2018-07-16T15:53:03.564Z,24.36
2018-07-16T15:55:32.740Z,24.63
2018-07-16T15:58:01.853Z,24.33
2018-07-16T16:00:31.080Z,24.69
2018-07-16T16:03:00.188Z,24.09
2018-07-16T16:05:29.347Z,23.88
2018-07-16T16:07:58.503Z,24.41
2018-07-16T16:10:27.590Z,23.55
2018-07-16T16:12:56.727Z,24.13
2018-07-16T16:15:26.097Z,24.10
2018-07-16T16:17:55.309Z,24.39
2018-07-16T16:20:24.448Z,24.23
2018-07-16T16:22:53.627Z,24.45
2018-07-16T16:25:22.742Z,24.71
2018-07-16T16:27:51.868Z,25.36
2018-07-16T16:30:21.142Z,25.69
2018-07-16T16:32:50.319Z,25.64
2018-07-16T16:35:19.437Z,25.45
2018-07-16T16:37:48.532Z,25.12
2018-07-16T16:40:17.722Z,24.82
2018-07-16T16:42:46.882Z,24.67
2018-07-16T16:45:16.071Z,24.89
2018-07-16T16:47:45.195Z,25.03
2018-07-16T16:50:14.333Z,25.16
2018-07-16T16:52:43.503Z,24.91
2018-07-16T16:55:12.846Z,25.38
2018-07-16T16:57:41.953Z,25.07
2018-07-16T17:00:11.075Z,25.74
2018-07-16T17:02:40.222Z,25.23
2018-07-16T17:05:09.366Z,25.18
2018-07-16T17:07:38.588Z,25.37
2018-07-16T17:10:07.730Z,25.82
2018-07-16T17:12:36.862Z,25.43
2018-07-16T17:15:05.971Z,26.03
2018-07-16T17:17:35.121Z,26.21
2018-07-16T17:20:04.296Z,26.20
2018-07-16T17:22:33.454Z,25.98
2018-07-16T17:25:02.554Z,25.50
2018-07-16T17:27:31.700Z,25.56
2018-07-16T17:30:00.907Z,25.76
2018-07-16T17:32:30.031Z,26.31
2018-07-16T17:34:59.126Z,26.62
2018-07-16T17:37:28.308Z,26.35
2018-07-16T17:39:57.435Z,26.05
2018-07-16T17:42:26.590Z,26.10
2018-07-16T17:44:55.792Z,25.69
2018-07-16T17:47:24.954Z,26.38
2018-07-16T17:49:54.014Z,25.94
2018-07-16T17:52:23.101Z,26.04
2018-07-16T17:54:52.259Z,26.47
2018-07-16T17:57:21.413Z,26.33
2018-07-16T17:59:50.489Z,26.44
2018-07-16T18:02:19.658Z,27.25
2018-07-16T18:04:48.789Z,28.03
2018-07-16T18:07:22.495Z,27.85
2018-07-16T18:09:52.743Z,27.92
2018-07-16T18:12:22.614Z,27.95
2018-07-16T18:14:52.155Z,28.41
2018-07-16T18:17:21.267Z,27.98
2018-07-16T18:19:50.366Z,28.04
2018-07-16T18:22:19.576Z,27.94
2018-07-16T18:24:48.676Z,28.65
2018-07-16T18:27:18.472Z,28.32
2018-07-16T18:29:47.978Z,28.42
2018-07-16T18:32:17.117Z,28.30
2018-07-16T18:34:46.295Z,28.65
2018-07-16T18:37:15.482Z,28.96
2018-07-16T18:39:44.681Z,29.34
2018-07-16T18:42:13.636Z,29.11
2018-07-16T18:44:42.869Z,29.31
2018-07-16T18:47:11.963Z,29.47
2018-07-16T18:49:41.130Z,29.70
2018-07-16T18:52:10.298Z,30.20
2018-07-16T18:54:39.433Z,29.98
2018-07-16T18:57:08.649Z,30.32
2018-07-16T18:59:37.790Z,30.61
2018-07-16T19:02:06.897Z,30.78
2018-07-16T19:04:35.995Z,30.85
2018-07-16T19:07:05.827Z,30.87
2018-07-16T19:09:35.456Z,31.33
2018-07-16T19:12:04.606Z,31.41
2018-07-16T19:14:33.701Z,31.42
2018-07-16T19:17:03.037Z,31.69
2018-07-16T19:19:32.459Z,32.19
2018-07-16T19:22:01.575Z,32.06
2018-07-16T19:24:30.696Z,32.28
2018-07-16T19:26:59.816Z,32.68
2018-07-16T19:29:28.922Z,32.77
2018-07-16T19:31:58.059Z,33.35
2018-07-16T19:34:27.270Z,33.31
2018-07-16T19:36:56.376Z,33.31
2018-07-16T19:39:25.515Z,34.01
2018-07-16T19:41:54.646Z,34.12
2018-07-16T19:44:23.791Z,33.75
2018-07-16T19:46:52.956Z,33.88
2018-07-16T19:49:22.058Z,34.49
2018-07-16T19:51:51.173Z,34.58
2018-07-16T19:54:20.316Z,34.48
2018-07-16T19:56:49.491Z,34.49
2018-07-16T19:59:18.573Z,35.24
2018-07-16T20:01:47.669Z,36.44
2018-07-16T20:04:16.834Z,36.38
2018-07-16T20:06:46.140Z,37.08
2018-07-16T20:09:15.299Z,37.41
2018-07-16T20:11:44.431Z,37.76
2018-07-16T20:14:13.671Z,38.32
2018-07-16T20:16:43.726Z,38.18
2018-07-16T20:19:13.263Z,38.58
2018-07-16T20:21:42.379Z,38.80
2018-07-16T20:24:11.575Z,39.04
2018-07-16T20:26:40.675Z,38.84
2018-07-16T20:29:09.842Z,38.53
2018-07-16T20:31:38.965Z,38.37
2018-07-16T20:34:08.127Z,37.98
2018-07-16T20:36:37.255Z,37.97
2018-07-16T20:39:08.957Z,38.36
2018-07-16T20:41:38.027Z,38.63
2018-07-16T20:44:07.178Z,38.70
2018-07-16T20:46:36.266Z,38.82
2018-07-16T20:49:05.438Z,39.14
2018-07-16T20:51:34.475Z,39.60
2018-07-16T20:54:03.545Z,39.89
2018-07-16T20:56:32.700Z,39.74
2018-07-16T20:59:01.746Z,40.32
2018-07-16T21:01:30.931Z,40.33
2018-07-16T21:04:00.097Z,40.23
2018-07-16T21:06:29.168Z,40.53
2018-07-16T21:08:58.226Z,41.18
2018-07-16T21:11:27.355Z,41.16
2018-07-16T21:13:56.558Z,41.12
2018-07-16T21:16:25.730Z,41.45
2018-07-16T21:18:54.918Z,41.99
2018-07-16T21:21:24.232Z,42.02
2018-07-16T21:23:53.444Z,42.15
2018-07-16T21:26:22.529Z,43.14
2018-07-16T21:28:51.657Z,42.48
2018-07-16T21:31:20.836Z,42.89
2018-07-16T21:33:49.969Z,43.24
2018-07-16T21:36:19.119Z,43.18
2018-07-16T21:38:48.302Z,42.79
2018-07-16T21:41:17.421Z,42.27
2018-07-16T21:43:46.554Z,42.16
2018-07-16T21:46:15.640Z,42.63
2018-07-16T21:48:44.746Z,42.74
2018-07-16T21:51:14.073Z,43.49
2018-07-16T21:53:43.213Z,43.18
2018-07-16T21:56:12.326Z,43.44
2018-07-16T21:58:41.439Z,43.44
2018-07-16T22:01:10.610Z,43.59
2018-07-16T22:03:39.872Z,43.42
2018-07-16T22:06:09.004Z,43.27
2018-07-16T22:08:38.120Z,43.45
2018-07-16T22:11:07.277Z,43.97
2018-07-16T22:13:36.434Z,44.07
2018-07-16T22:16:05.581Z,44.27
2018-07-16T22:18:34.688Z,44.55
2018-07-16T22:21:03.895Z,44.94
2018-07-16T22:23:33.046Z,45.12
2018-07-16T22:26:02.203Z,44.51
2018-07-16T22:28:31.359Z,44.49
2018-07-16T22:31:00.534Z,44.95
2018-07-16T22:33:29.696Z,44.86
2018-07-16T22:35:58.754Z,45.15
2018-07-16T22:38:27.863Z,45.52
2018-07-16T22:40:57.017Z,46.13
2018-07-16T22:43:26.194Z,45.91
2018-07-16T22:45:55.323Z,45.51
2018-07-16T22:48:24.449Z,45.44
2018-07-16T22:50:53.558Z,45.85
2018-07-16T22:53:22.650Z,45.96
2018-07-16T22:55:51.821Z,45.94
2018-07-16T22:58:20.931Z,46.44
2018-07-16T23:00:50.015Z,46.49
2018-07-16T23:03:19.135Z,46.50
2018-07-16T23:05:48.206Z,47.15
2018-07-16T23:08:19.193Z,47.11
2018-07-16T23:10:48.703Z,47.05
2018-07-16T23:13:17.835Z,47.73
2018-07-16T23:15:46.982Z,48.04
2018-07-16T23:18:16.078Z,47.56
2018-07-16T23:20:45.019Z,47.93
2018-07-16T23:23:14.254Z,47.35
2018-07-16T23:25:43.185Z,48.08
2018-07-16T23:28:12.351Z,47.83
2018-07-16T23:30:41.455Z,48.08
2018-07-16T23:33:10.828Z,48.02
2018-07-16T23:35:39.958Z,48.06
2018-07-16T23:38:09.099Z,48.14
2018-07-16T23:40:38.259Z,48.41
2018-07-16T23:43:07.460Z,48.80
2018-07-16T23:45:36.590Z,48.58
2018-07-16T23:48:05.884Z,49.16
2018-07-16T23:50:35.030Z,49.72
2018-07-16T23:53:04.145Z,49.51
2018-07-16T23:55:33.287Z,49.19
2018-07-16T23:58:02.390Z,49.26
